sensor_id;sensor_type;location;lat;lon;timestamp;P1;durP1;ratioP1;P2;durP2;ratioP2
15677;SDS011;7939;50.814;6.368;2022-10-16T00:00:20;1.00;;;1.00;;
15677;SDS011;7939;50.814;6.368;2022-10-16T00:02:46;1.02;;;1.00;;
15677;SDS011;7939;50.814;6.368;2022-10-16T00:05:13;1.52;;;1.10;;
15677;SDS011;7939;50.814;6.368;2022-10-16T00:07:40;1.10;;;1.00;;
15677;SDS011;7939;50.814;6.368;2022-10-16T00:10:07;2.97;;;1.52;;
15677;SDS011;7939;50.814;6.368;2022-10-16T00:12:35;1.45;;;1.20;;
15677;SDS011;7939;50.814;6.368;2022-10-16T00:15:01;0.90;;;0.90;;
15677;SDS011;7939;50.814;6.368;2022-10-16T00:17:29;1.55;;;1.10;;
15677;SDS011;7939;50.814;6.368;2022-10-16T00:19:56;1.27;;;1.00;;
15677;SDS011;7939;50.814;6.368;2022-10-16T00:22:22;0.90;;;0.80;;
15677;SDS011;7939;50.814;6.368;2022-10-16T00:24:49;1.02;;;0.93;;
15677;SDS011;7939;50.814;6.368;2022-10-16T00:27:16;1.17;;;0.88;;
15677;SDS011;7939;50.814;6.368;2022-10-16T00:29:44;3.13;;;0.90;;
15677;SDS011;7939;50.814;6.368;2022-10-16T00:32:11;0.70;;;0.70;;
15677;SDS011;7939;50.814;6.368;2022-10-16T00:34:38;0.88;;;0.88;;
15677;SDS011;7939;50.814;6.368;2022-10-16T00:37:04;1.30;;;1.08;;
15677;SDS011;7939;50.814;6.368;2022-10-16T00:39:31;1.10;;;0.95;;
15677;SDS011;7939;50.814;6.368;2022-10-16T00:41:57;2.85;;;0.90;;
15677;SDS011;7939;50.814;6.368;2022-10-16T00:47:24;1.25;;;1.00;;
15677;SDS011;7939;50.814;6.368;2022-10-16T00:49:55;1.65;;;1.00;;
15677;SDS011;7939;50.814;6.368;2022-10-16T00:52:26;1.20;;;0.95;;
15677;SDS011;7939;50.814;6.368;2022-10-16T00:54:53;0.73;;;0.73;;
15677;SDS011;7939;50.814;6.368;2022-10-16T00:57:21;2.28;;;0.98;;
15677;SDS011;7939;50.814;6.368;2022-10-16T00:59:48;0.80;;;0.80;;
15677;SDS011;7939;50.814;6.368;2022-10-16T01:02:16;1.98;;;0.90;;
15677;SDS011;7939;50.814;6.368;2022-10-16T01:04:44;0.80;;;0.80;;
15677;SDS011;7939;50.814;6.368;2022-10-16T01:07:14;2.33;;;0.80;;
15677;SDS011;7939;50.814;6.368;2022-10-16T01:09:54;1.13;;;0.90;;
15677;SDS011;7939;50.814;6.368;2022-10-16T01:12:30;1.20;;;1.02;;
15677;SDS011;7939;50.814;6.368;2022-10-16T01:15:06;1.05;;;0.95;;
15677;SDS011;7939;50.814;6.368;2022-10-16T01:17:41;1.70;;;0.85;;
15677;SDS011;7939;50.814;6.368;2022-10-16T01:20:14;2.78;;;1.08;;
15677;SDS011;7939;50.814;6.368;2022-10-16T01:22:57;1.13;;;0.85;;
15677;SDS011;7939;50.814;6.368;2022-10-16T01:25:35;0.90;;;0.75;;
15677;SDS011;7939;50.814;6.368;2022-10-16T01:28:10;1.27;;;1.00;;
15677;SDS011;7939;50.814;6.368;2022-10-16T01:30:40;2.33;;;1.38;;
15677;SDS011;7939;50.814;6.368;2022-10-16T01:33:10;1.27;;;1.17;;
15677;SDS011;7939;50.814;6.368;2022-10-16T01:35:42;1.88;;;1.23;;
15677;SDS011;7939;50.814;6.368;2022-10-16T01:38:14;1.02;;;0.80;;
15677;SDS011;7939;50.814;6.368;2022-10-16T01:40:45;1.60;;;0.77;;
15677;SDS011;7939;50.814;6.368;2022-10-16T01:43:17;1.00;;;0.82;;
15677;SDS011;7939;50.814;6.368;2022-10-16T01:45:47;1.23;;;0.93;;
15677;SDS011;7939;50.814;6.368;2022-10-16T01:48:15;1.27;;;0.88;;
15677;SDS011;7939;50.814;6.368;2022-10-16T01:50:48;0.80;;;0.80;;
15677;SDS011;7939;50.814;6.368;2022-10-16T01:53:18;1.75;;;0.75;;
15677;SDS011;7939;50.814;6.368;2022-10-16T01:55:46;0.73;;;0.63;;
15677;SDS011;7939;50.814;6.368;2022-10-16T01:58:17;2.55;;;0.73;;
15677;SDS011;7939;50.814;6.368;2022-10-16T02:00:44;0.70;;;0.70;;
15677;SDS011;7939;50.814;6.368;2022-10-16T02:03:14;1.48;;;0.70;;
15677;SDS011;7939;50.814;6.368;2022-10-16T02:05:45;0.80;;;0.80;;
15677;SDS011;7939;50.814;6.368;2022-10-16T02:08:13;0.70;;;0.65;;
15677;SDS011;7939;50.814;6.368;2022-10-16T02:10:40;1.08;;;0.70;;
15677;SDS011;7939;50.814;6.368;2022-10-16T02:13:09;0.50;;;0.50;;
15677;SDS011;7939;50.814;6.368;2022-10-16T02:15:39;0.60;;;0.60;;
15677;SDS011;7939;50.814;6.368;2022-10-16T02:18:06;4.05;;;1.90;;
15677;SDS011;7939;50.814;6.368;2022-10-16T02:20:38;3.53;;;2.15;;
15677;SDS011;7939;50.814;6.368;2022-10-16T02:23:11;2.58;;;1.95;;
15677;SDS011;7939;50.814;6.368;2022-10-16T02:25:45;2.83;;;1.85;;
15677;SDS011;7939;50.814;6.368;2022-10-16T02:28:15;2.40;;;1.40;;
15677;SDS011;7939;50.814;6.368;2022-10-16T02:30:46;3.03;;;1.80;;
15677;SDS011;7939;50.814;6.368;2022-10-16T02:33:17;2.10;;;1.90;;
15677;SDS011;7939;50.814;6.368;2022-10-16T02:35:47;2.85;;;1.20;;
15677;SDS011;7939;50.814;6.368;2022-10-16T02:38:16;1.63;;;1.20;;
15677;SDS011;7939;50.814;6.368;2022-10-16T02:40:44;1.80;;;1.40;;
15677;SDS011;7939;50.814;6.368;2022-10-16T02:43:11;1.67;;;1.55;;
15677;SDS011;7939;50.814;6.368;2022-10-16T02:45:39;2.00;;;1.30;;
15677;SDS011;7939;50.814;6.368;2022-10-16T02:48:07;0.90;;;0.90;;
15677;SDS011;7939;50.814;6.368;2022-10-16T02:50:33;0.85;;;0.85;;
15677;SDS011;7939;50.814;6.368;2022-10-16T02:53:00;0.80;;;0.80;;
15677;SDS011;7939;50.814;6.368;2022-10-16T02:55:27;0.82;;;0.70;;
15677;SDS011;7939;50.814;6.368;2022-10-16T02:57:53;2.28;;;1.75;;
15677;SDS011;7939;50.814;6.368;2022-10-16T03:00:20;1.30;;;0.90;;
15677;SDS011;7939;50.814;6.368;2022-10-16T03:02:47;1.10;;;1.00;;
15677;SDS011;7939;50.814;6.368;2022-10-16T03:05:15;2.58;;;1.63;;
15677;SDS011;7939;50.814;6.368;2022-10-16T03:07:42;0.77;;;0.77;;
15677;SDS011;7939;50.814;6.368;2022-10-16T03:10:09;0.75;;;0.75;;
15677;SDS011;7939;50.814;6.368;2022-10-16T03:12:35;0.90;;;0.90;;
15677;SDS011;7939;50.814;6.368;2022-10-16T03:15:02;0.80;;;0.77;;
15677;SDS011;7939;50.814;6.368;2022-10-16T03:17:29;0.90;;;0.80;;
15677;SDS011;7939;50.814;6.368;2022-10-16T03:19:56;1.25;;;0.95;;
15677;SDS011;7939;50.814;6.368;2022-10-16T03:22:24;1.13;;;0.80;;
15677;SDS011;7939;50.814;6.368;2022-10-16T03:24:50;0.85;;;0.80;;
15677;SDS011;7939;50.814;6.368;2022-10-16T03:27:17;0.85;;;0.80;;
15677;SDS011;7939;50.814;6.368;2022-10-16T03:29:43;1.58;;;0.95;;
15677;SDS011;7939;50.814;6.368;2022-10-16T03:32:10;1.35;;;1.00;;
15677;SDS011;7939;50.814;6.368;2022-10-16T03:34:36;1.13;;;0.90;;
15677;SDS011;7939;50.814;6.368;2022-10-16T03:37:03;0.88;;;0.88;;
15677;SDS011;7939;50.814;6.368;2022-10-16T03:39:31;1.77;;;0.90;;
15677;SDS011;7939;50.814;6.368;2022-10-16T03:41:58;1.25;;;0.90;;
15677;SDS011;7939;50.814;6.368;2022-10-16T03:44:24;1.35;;;0.95;;
15677;SDS011;7939;50.814;6.368;2022-10-16T03:46:51;1.00;;;0.90;;
15677;SDS011;7939;50.814;6.368;2022-10-16T03:49:17;0.80;;;0.80;;
15677;SDS011;7939;50.814;6.368;2022-10-16T03:51:44;0.70;;;0.70;;
15677;SDS011;7939;50.814;6.368;2022-10-16T03:54:11;1.20;;;1.10;;
15677;SDS011;7939;50.814;6.368;2022-10-16T03:56:39;1.40;;;1.20;;
15677;SDS011;7939;50.814;6.368;2022-10-16T03:59:05;1.80;;;0.80;;
15677;SDS011;7939;50.814;6.368;2022-10-16T04:01:32;0.98;;;0.80;;
15677;SDS011;7939;50.814;6.368;2022-10-16T04:03:58;1.90;;;0.93;;
15677;SDS011;7939;50.814;6.368;2022-10-16T04:06:25;1.65;;;1.05;;
15677;SDS011;7939;50.814;6.368;2022-10-16T04:08:52;2.85;;;0.80;;
15677;SDS011;7939;50.814;6.368;2022-10-16T04:11:18;0.75;;;0.75;;
15677;SDS011;7939;50.814;6.368;2022-10-16T04:13:47;0.80;;;0.80;;
15677;SDS011;7939;50.814;6.368;2022-10-16T04:16:13;1.10;;;1.00;;
15677;SDS011;7939;50.814;6.368;2022-10-16T04:18:40;3.00;;;0.90;;
15677;SDS011;7939;50.814;6.368;2022-10-16T04:21:07;1.00;;;0.90;;
15677;SDS011;7939;50.814;6.368;2022-10-16T04:23:34;1.13;;;0.90;;
15677;SDS011;7939;50.814;6.368;2022-10-16T04:26:01;1.02;;;1.00;;
15677;SDS011;7939;50.814;6.368;2022-10-16T04:28:28;1.50;;;1.10;;
15677;SDS011;7939;50.814;6.368;2022-10-16T04:30:56;1.13;;;1.02;;
15677;SDS011;7939;50.814;6.368;2022-10-16T04:33:23;0.80;;;0.75;;
15677;SDS011;7939;50.814;6.368;2022-10-16T04:35:55;1.15;;;1.05;;
15677;SDS011;7939;50.814;6.368;2022-10-16T04:38:22;1.10;;;0.98;;
15677;SDS011;7939;50.814;6.368;2022-10-16T04:40:49;0.90;;;0.80;;
15677;SDS011;7939;50.814;6.368;2022-10-16T04:43:16;0.90;;;0.90;;
15677;SDS011;7939;50.814;6.368;2022-10-16T04:45:43;0.93;;;0.90;;
15677;SDS011;7939;50.814;6.368;2022-10-16T04:48:11;0.93;;;0.93;;
15677;SDS011;7939;50.814;6.368;2022-10-16T04:50:37;2.45;;;1.10;;
15677;SDS011;7939;50.814;6.368;2022-10-16T04:53:04;1.10;;;1.00;;
15677;SDS011;7939;50.814;6.368;2022-10-16T04:55:31;1.20;;;1.10;;
15677;SDS011;7939;50.814;6.368;2022-10-16T04:57:58;1.00;;;0.88;;
15677;SDS011;7939;50.814;6.368;2022-10-16T05:00:24;1.15;;;0.85;;
15677;SDS011;7939;50.814;6.368;2022-10-16T05:02:51;1.45;;;0.90;;
15677;SDS011;7939;50.814;6.368;2022-10-16T05:05:19;1.15;;;1.05;;
15677;SDS011;7939;50.814;6.368;2022-10-16T05:07:46;1.15;;;0.88;;
15677;SDS011;7939;50.814;6.368;2022-10-16T05:10:12;0.95;;;0.85;;
15677;SDS011;7939;50.814;6.368;2022-10-16T05:12:39;1.52;;;1.10;;
15677;SDS011;7939;50.814;6.368;2022-10-16T05:15:06;1.10;;;1.00;;
15677;SDS011;7939;50.814;6.368;2022-10-16T05:17:33;0.90;;;0.90;;
15677;SDS011;7939;50.814;6.368;2022-10-16T05:20:00;1.40;;;1.10;;
15677;SDS011;7939;50.814;6.368;2022-10-16T05:22:28;1.05;;;1.05;;
15677;SDS011;7939;50.814;6.368;2022-10-16T05:24:54;1.13;;;1.00;;
15677;SDS011;7939;50.814;6.368;2022-10-16T05:27:21;0.93;;;0.93;;
15677;SDS011;7939;50.814;6.368;2022-10-16T05:29:48;0.70;;;0.70;;
15677;SDS011;7939;50.814;6.368;2022-10-16T05:32:15;2.60;;;1.00;;
15677;SDS011;7939;50.814;6.368;2022-10-16T05:34:43;2.25;;;1.20;;
15677;SDS011;7939;50.814;6.368;2022-10-16T05:37:10;2.00;;;1.10;;
15677;SDS011;7939;50.814;6.368;2022-10-16T05:39:38;1.48;;;1.38;;
15677;SDS011;7939;50.814;6.368;2022-10-16T05:42:05;3.45;;;1.30;;
15677;SDS011;7939;50.814;6.368;2022-10-16T05:44:32;1.10;;;1.10;;
15677;SDS011;7939;50.814;6.368;2022-10-16T05:46:59;2.53;;;1.20;;
15677;SDS011;7939;50.814;6.368;2022-10-16T05:49:25;0.93;;;0.93;;
15677;SDS011;7939;50.814;6.368;2022-10-16T05:51:52;1.83;;;1.48;;
15677;SDS011;7939;50.814;6.368;2022-10-16T05:54:18;1.80;;;1.33;;
15677;SDS011;7939;50.814;6.368;2022-10-16T05:56:46;1.02;;;1.02;;
15677;SDS011;7939;50.814;6.368;2022-10-16T05:59:13;1.55;;;1.20;;
15677;SDS011;7939;50.814;6.368;2022-10-16T06:01:40;1.40;;;1.20;;
15677;SDS011;7939;50.814;6.368;2022-10-16T06:04:07;1.52;;;1.08;;
15677;SDS011;7939;50.814;6.368;2022-10-16T06:06:34;1.40;;;1.30;;
15677;SDS011;7939;50.814;6.368;2022-10-16T06:09:01;1.45;;;1.27;;
15677;SDS011;7939;50.814;6.368;2022-10-16T06:11:30;1.10;;;1.08;;
15677;SDS011;7939;50.814;6.368;2022-10-16T06:14:00;3.58;;;1.35;;
15677;SDS011;7939;50.814;6.368;2022-10-16T06:16:31;4.43;;;1.30;;
15677;SDS011;7939;50.814;6.368;2022-10-16T06:18:58;2.13;;;1.50;;
15677;SDS011;7939;50.814;6.368;2022-10-16T06:21:25;1.60;;;1.48;;
15677;SDS011;7939;50.814;6.368;2022-10-16T06:23:53;1.65;;;1.50;;
15677;SDS011;7939;50.814;6.368;2022-10-16T06:26:22;1.83;;;1.73;;
15677;SDS011;7939;50.814;6.368;2022-10-16T06:28:50;1.98;;;1.83;;
15677;SDS011;7939;50.814;6.368;2022-10-16T06:31:18;3.67;;;1.98;;
15677;SDS011;7939;50.814;6.368;2022-10-16T06:33:49;1.90;;;1.70;;
15677;SDS011;7939;50.814;6.368;2022-10-16T06:36:18;2.88;;;1.73;;
15677;SDS011;7939;50.814;6.368;2022-10-16T06:38:45;1.58;;;1.48;;
15677;SDS011;7939;50.814;6.368;2022-10-16T06:41:12;1.55;;;1.45;;
15677;SDS011;7939;50.814;6.368;2022-10-16T06:43:40;1.70;;;1.35;;
15677;SDS011;7939;50.814;6.368;2022-10-16T06:46:09;1.80;;;1.30;;
15677;SDS011;7939;50.814;6.368;2022-10-16T06:48:38;1.73;;;1.63;;
15677;SDS011;7939;50.814;6.368;2022-10-16T06:51:05;1.52;;;1.42;;
15677;SDS011;7939;50.814;6.368;2022-10-16T06:53:33;3.90;;;2.33;;
15677;SDS011;7939;50.814;6.368;2022-10-16T06:56:06;3.15;;;2.42;;
15677;SDS011;7939;50.814;6.368;2022-10-16T06:58:34;3.28;;;2.97;;
15677;SDS011;7939;50.814;6.368;2022-10-16T07:01:00;2.03;;;1.92;;
15677;SDS011;7939;50.814;6.368;2022-10-16T07:03:27;1.75;;;1.45;;
15677;SDS011;7939;50.814;6.368;2022-10-16T07:05:55;1.73;;;1.58;;
15677;SDS011;7939;50.814;6.368;2022-10-16T07:08:22;2.20;;;1.55;;
15677;SDS011;7939;50.814;6.368;2022-10-16T07:10:57;3.67;;;2.40;;
15677;SDS011;7939;50.814;6.368;2022-10-16T07:13:24;3.65;;;3.15;;
15677;SDS011;7939;50.814;6.368;2022-10-16T07:15:51;2.90;;;2.60;;
15677;SDS011;7939;50.814;6.368;2022-10-16T07:18:17;2.50;;;2.30;;
15677;SDS011;7939;50.814;6.368;2022-10-16T07:20:44;2.53;;;2.10;;
15677;SDS011;7939;50.814;6.368;2022-10-16T07:23:12;2.22;;;1.80;;
15677;SDS011;7939;50.814;6.368;2022-10-16T07:25:39;2.55;;;1.30;;
15677;SDS011;7939;50.814;6.368;2022-10-16T07:28:05;2.25;;;1.45;;
15677;SDS011;7939;50.814;6.368;2022-10-16T07:30:34;2.90;;;2.63;;
15677;SDS011;7939;50.814;6.368;2022-10-16T07:33:01;2.50;;;2.25;;
15677;SDS011;7939;50.814;6.368;2022-10-16T07:35:28;3.60;;;1.70;;
15677;SDS011;7939;50.814;6.368;2022-10-16T07:37:54;3.53;;;2.50;;
15677;SDS011;7939;50.814;6.368;2022-10-16T07:40:22;2.20;;;1.48;;
15677;SDS011;7939;50.814;6.368;2022-10-16T07:42:49;1.58;;;1.15;;
15677;SDS011;7939;50.814;6.368;2022-10-16T07:45:15;1.52;;;1.02;;
15677;SDS011;7939;50.814;6.368;2022-10-16T07:47:42;2.13;;;1.25;;
15677;SDS011;7939;50.814;6.368;2022-10-16T07:50:08;1.60;;;1.50;;
15677;SDS011;7939;50.814;6.368;2022-10-16T07:52:35;1.92;;;1.20;;
15677;SDS011;7939;50.814;6.368;2022-10-16T07:55:01;1.83;;;1.30;;
15677;SDS011;7939;50.814;6.368;2022-10-16T07:57:30;2.05;;;1.17;;
15677;SDS011;7939;50.814;6.368;2022-10-16T07:59:57;1.33;;;1.23;;
15677;SDS011;7939;50.814;6.368;2022-10-16T08:02:24;1.20;;;1.10;;
15677;SDS011;7939;50.814;6.368;2022-10-16T08:04:50;1.10;;;1.00;;
15677;SDS011;7939;50.814;6.368;2022-10-16T08:07:17;2.13;;;1.10;;
15677;SDS011;7939;50.814;6.368;2022-10-16T08:09:43;1.73;;;1.30;;
15677;SDS011;7939;50.814;6.368;2022-10-16T08:12:10;1.00;;;1.00;;
15677;SDS011;7939;50.814;6.368;2022-10-16T08:14:37;1.10;;;1.00;;
15677;SDS011;7939;50.814;6.368;2022-10-16T08:17:04;2.25;;;1.02;;
15677;SDS011;7939;50.814;6.368;2022-10-16T08:19:30;1.38;;;1.00;;
15677;SDS011;7939;50.814;6.368;2022-10-16T08:21:59;1.88;;;1.30;;
15677;SDS011;7939;50.814;6.368;2022-10-16T08:24:26;0.90;;;0.90;;
15677;SDS011;7939;50.814;6.368;2022-10-16T08:26:53;1.15;;;1.08;;
15677;SDS011;7939;50.814;6.368;2022-10-16T08:29:19;1.00;;;1.00;;
15677;SDS011;7939;50.814;6.368;2022-10-16T08:31:47;1.48;;;0.88;;
15677;SDS011;7939;50.814;6.368;2022-10-16T08:34:14;1.48;;;1.20;;
15677;SDS011;7939;50.814;6.368;2022-10-16T08:36:40;1.75;;;0.98;;
15677;SDS011;7939;50.814;6.368;2022-10-16T08:39:07;1.83;;;0.82;;
15677;SDS011;7939;50.814;6.368;2022-10-16T08:41:39;0.93;;;0.85;;
15677;SDS011;7939;50.814;6.368;2022-10-16T08:47:45;1.15;;;0.80;;
15677;SDS011;7939;50.814;6.368;2022-10-16T08:50:18;1.55;;;0.88;;
15677;SDS011;7939;50.814;6.368;2022-10-16T08:52:49;3.83;;;1.05;;
15677;SDS011;7939;50.814;6.368;2022-10-16T08:55:28;1.05;;;0.90;;
15677;SDS011;7939;50.814;6.368;2022-10-16T08:57:58;0.93;;;0.90;;
15677;SDS011;7939;50.814;6.368;2022-10-16T09:00:25;1.80;;;1.23;;
15677;SDS011;7939;50.814;6.368;2022-10-16T09:02:55;2.00;;;0.93;;
15677;SDS011;7939;50.814;6.368;2022-10-16T09:08:34;2.33;;;0.73;;
15677;SDS011;7939;50.814;6.368;2022-10-16T09:11:13;1.38;;;0.98;;
15677;SDS011;7939;50.814;6.368;2022-10-16T09:13:48;0.77;;;0.77;;
15677;SDS011;7939;50.814;6.368;2022-10-16T09:16:19;2.72;;;1.00;;
15677;SDS011;7939;50.814;6.368;2022-10-16T09:18:54;0.82;;;0.80;;
15677;SDS011;7939;50.814;6.368;2022-10-16T09:21:26;1.48;;;1.15;;
15677;SDS011;7939;50.814;6.368;2022-10-16T09:23:57;1.98;;;0.90;;
15677;SDS011;7939;50.814;6.368;2022-10-16T09:26:25;0.80;;;0.65;;
15677;SDS011;7939;50.814;6.368;2022-10-16T09:28:52;2.78;;;0.85;;
15677;SDS011;7939;50.814;6.368;2022-10-16T09:31:20;1.65;;;1.10;;
15677;SDS011;7939;50.814;6.368;2022-10-16T09:33:49;1.90;;;0.60;;
15677;SDS011;7939;50.814;6.368;2022-10-16T09:36:20;1.48;;;1.00;;
15677;SDS011;7939;50.814;6.368;2022-10-16T09:38:50;1.02;;;0.68;;
15677;SDS011;7939;50.814;6.368;2022-10-16T09:41:27;1.48;;;0.80;;
15677;SDS011;7939;50.814;6.368;2022-10-16T09:43:54;1.20;;;0.80;;
15677;SDS011;7939;50.814;6.368;2022-10-16T09:46:27;1.08;;;0.70;;
15677;SDS011;7939;50.814;6.368;2022-10-16T09:48:55;0.98;;;0.80;;
15677;SDS011;7939;50.814;6.368;2022-10-16T09:51:25;1.88;;;0.90;;
15677;SDS011;7939;50.814;6.368;2022-10-16T09:53:57;2.00;;;0.85;;
15677;SDS011;7939;50.814;6.368;2022-10-16T09:56:26;4.00;;;1.08;;
15677;SDS011;7939;50.814;6.368;2022-10-16T09:58:55;1.35;;;0.90;;
15677;SDS011;7939;50.814;6.368;2022-10-16T10:01:26;3.55;;;1.10;;
15677;SDS011;7939;50.814;6.368;2022-10-16T10:03:58;2.53;;;1.00;;
15677;SDS011;7939;50.814;6.368;2022-10-16T10:06:30;1.88;;;0.80;;
15677;SDS011;7939;50.814;6.368;2022-10-16T10:09:04;1.25;;;0.95;;
15677;SDS011;7939;50.814;6.368;2022-10-16T10:11:39;1.40;;;1.05;;
15677;SDS011;7939;50.814;6.368;2022-10-16T10:14:18;1.13;;;0.80;;
15677;SDS011;7939;50.814;6.368;2022-10-16T10:16:47;1.35;;;1.25;;
15677;SDS011;7939;50.814;6.368;2022-10-16T10:19:16;0.70;;;0.70;;
15677;SDS011;7939;50.814;6.368;2022-10-16T10:21:45;0.93;;;0.80;;
15677;SDS011;7939;50.814;6.368;2022-10-16T10:24:13;4.05;;;1.05;;
15677;SDS011;7939;50.814;6.368;2022-10-16T10:26:41;0.90;;;0.82;;
15677;SDS011;7939;50.814;6.368;2022-10-16T10:29:15;0.63;;;0.63;;
15677;SDS011;7939;50.814;6.368;2022-10-16T10:31:54;0.68;;;0.68;;
15677;SDS011;7939;50.814;6.368;2022-10-16T10:34:44;1.08;;;0.57;;
15677;SDS011;7939;50.814;6.368;2022-10-16T10:37:29;0.90;;;0.80;;
15677;SDS011;7939;50.814;6.368;2022-10-16T10:40:12;1.05;;;0.82;;
15677;SDS011;7939;50.814;6.368;2022-10-16T10:42:50;1.70;;;0.80;;
15677;SDS011;7939;50.814;6.368;2022-10-16T10:45:24;1.08;;;0.70;;
15677;SDS011;7939;50.814;6.368;2022-10-16T10:47:56;1.23;;;0.63;;
15677;SDS011;7939;50.814;6.368;2022-10-16T10:50:33;1.55;;;0.52;;
15677;SDS011;7939;50.814;6.368;2022-10-16T10:53:09;0.60;;;0.60;;
15677;SDS011;7939;50.814;6.368;2022-10-16T10:55:46;0.60;;;0.60;;
15677;SDS011;7939;50.814;6.368;2022-10-16T10:58:27;1.17;;;0.80;;
15677;SDS011;7939;50.814;6.368;2022-10-16T11:01:06;1.20;;;0.70;;
15677;SDS011;7939;50.814;6.368;2022-10-16T11:03:42;1.42;;;0.60;;
15677;SDS011;7939;50.814;6.368;2022-10-16T11:06:19;1.92;;;0.80;;
15677;SDS011;7939;50.814;6.368;2022-10-16T11:08:53;1.05;;;0.70;;
15677;SDS011;7939;50.814;6.368;2022-10-16T11:11:29;0.90;;;0.60;;
15677;SDS011;7939;50.814;6.368;2022-10-16T11:14:02;0.93;;;0.77;;
15677;SDS011;7939;50.814;6.368;2022-10-16T11:16:33;0.68;;;0.68;;
15677;SDS011;7939;50.814;6.368;2022-10-16T11:19:04;1.25;;;0.90;;
15677;SDS011;7939;50.814;6.368;2022-10-16T11:21:43;1.42;;;0.80;;
15677;SDS011;7939;50.814;6.368;2022-10-16T11:24:19;1.15;;;0.60;;
15677;SDS011;7939;50.814;6.368;2022-10-16T11:26:51;1.40;;;0.70;;
15677;SDS011;7939;50.814;6.368;2022-10-16T11:29:25;0.82;;;0.75;;
15677;SDS011;7939;50.814;6.368;2022-10-16T11:31:57;1.92;;;0.90;;
15677;SDS011;7939;50.814;6.368;2022-10-16T11:34:28;3.15;;;0.80;;
15677;SDS011;7939;50.814;6.368;2022-10-16T11:37:01;1.20;;;0.85;;
15677;SDS011;7939;50.814;6.368;2022-10-16T11:39:33;1.38;;;0.70;;
15677;SDS011;7939;50.814;6.368;2022-10-16T11:42:01;1.35;;;0.93;;
15677;SDS011;7939;50.814;6.368;2022-10-16T11:44:36;1.75;;;0.80;;
15677;SDS011;7939;50.814;6.368;2022-10-16T11:47:19;1.60;;;0.77;;
15677;SDS011;7939;50.814;6.368;2022-10-16T11:49:53;1.67;;;0.80;;
15677;SDS011;7939;50.814;6.368;2022-10-16T11:52:27;0.98;;;0.88;;
15677;SDS011;7939;50.814;6.368;2022-10-16T11:54:59;1.45;;;1.00;;
15677;SDS011;7939;50.814;6.368;2022-10-16T11:57:32;2.33;;;0.90;;
15677;SDS011;7939;50.814;6.368;2022-10-16T12:00:05;2.20;;;0.93;;
15677;SDS011;7939;50.814;6.368;2022-10-16T12:02:38;1.35;;;0.93;;
15677;SDS011;7939;50.814;6.368;2022-10-16T12:05:18;0.75;;;0.75;;
15677;SDS011;7939;50.814;6.368;2022-10-16T12:07:51;1.05;;;0.57;;
15677;SDS011;7939;50.814;6.368;2022-10-16T12:10:28;3.95;;;0.95;;
15677;SDS011;7939;50.814;6.368;2022-10-16T12:12:57;0.60;;;0.60;;
15677;SDS011;7939;50.814;6.368;2022-10-16T12:15:25;1.10;;;0.75;;
15677;SDS011;7939;50.814;6.368;2022-10-16T12:17:53;0.70;;;0.50;;
15677;SDS011;7939;50.814;6.368;2022-10-16T12:20:26;1.25;;;0.60;;
15677;SDS011;7939;50.814;6.368;2022-10-16T12:22:56;1.30;;;0.75;;
15677;SDS011;7939;50.814;6.368;2022-10-16T12:25:26;1.65;;;0.80;;
15677;SDS011;7939;50.814;6.368;2022-10-16T12:27:57;0.77;;;0.77;;
15677;SDS011;7939;50.814;6.368;2022-10-16T12:30:26;0.50;;;0.50;;
15677;SDS011;7939;50.814;6.368;2022-10-16T12:32:55;0.85;;;0.75;;
15677;SDS011;7939;50.814;6.368;2022-10-16T12:35:24;1.00;;;0.70;;
15677;SDS011;7939;50.814;6.368;2022-10-16T12:37:53;2.13;;;0.60;;
15677;SDS011;7939;50.814;6.368;2022-10-16T12:40:25;2.88;;;0.75;;
15677;SDS011;7939;50.814;6.368;2022-10-16T12:42:56;4.55;;;1.17;;
15677;SDS011;7939;50.814;6.368;2022-10-16T12:45:27;2.75;;;1.00;;
15677;SDS011;7939;50.814;6.368;2022-10-16T12:47:56;0.77;;;0.70;;
15677;SDS011;7939;50.814;6.368;2022-10-16T12:50:25;1.33;;;0.85;;
15677;SDS011;7939;50.814;6.368;2022-10-16T12:52:55;3.90;;;0.85;;
15677;SDS011;7939;50.814;6.368;2022-10-16T12:55:22;0.98;;;0.80;;
15677;SDS011;7939;50.814;6.368;2022-10-16T12:58:02;2.22;;;1.20;;
15677;SDS011;7939;50.814;6.368;2022-10-16T13:00:41;2.15;;;0.88;;
15677;SDS011;7939;50.814;6.368;2022-10-16T13:06:08;1.15;;;0.90;;
15677;SDS011;7939;50.814;6.368;2022-10-16T13:08:55;0.93;;;0.60;;
15677;SDS011;7939;50.814;6.368;2022-10-16T13:11:37;2.10;;;0.70;;
15677;SDS011;7939;50.814;6.368;2022-10-16T13:14:22;0.80;;;0.70;;
15677;SDS011;7939;50.814;6.368;2022-10-16T13:17:04;2.28;;;0.88;;
15677;SDS011;7939;50.814;6.368;2022-10-16T13:19:39;1.75;;;0.75;;
15677;SDS011;7939;50.814;6.368;2022-10-16T13:22:15;1.73;;;0.80;;
15677;SDS011;7939;50.814;6.368;2022-10-16T13:24:53;0.88;;;0.80;;
15677;SDS011;7939;50.814;6.368;2022-10-16T13:27:30;0.93;;;0.80;;
15677;SDS011;7939;50.814;6.368;2022-10-16T13:30:11;0.65;;;0.60;;
15677;SDS011;7939;50.814;6.368;2022-10-16T13:32:43;1.80;;;0.80;;
15677;SDS011;7939;50.814;6.368;2022-10-16T13:35:20;0.77;;;0.77;;
15677;SDS011;7939;50.814;6.368;2022-10-16T13:37:48;1.92;;;0.90;;
15677;SDS011;7939;50.814;6.368;2022-10-16T13:40:19;0.80;;;0.80;;
15677;SDS011;7939;50.814;6.368;2022-10-16T13:42:48;1.75;;;0.80;;
15677;SDS011;7939;50.814;6.368;2022-10-16T13:45:20;1.70;;;0.88;;
15677;SDS011;7939;50.814;6.368;2022-10-16T13:47:50;1.20;;;0.77;;
15677;SDS011;7939;50.814;6.368;2022-10-16T13:50:27;0.60;;;0.60;;
15677;SDS011;7939;50.814;6.368;2022-10-16T13:53:02;1.00;;;0.80;;
15677;SDS011;7939;50.814;6.368;2022-10-16T13:55:29;1.00;;;0.88;;
15677;SDS011;7939;50.814;6.368;2022-10-16T13:58:04;1.23;;;0.70;;
15677;SDS011;7939;50.814;6.368;2022-10-16T14:00:32;1.30;;;0.70;;
15677;SDS011;7939;50.814;6.368;2022-10-16T14:03:01;1.00;;;0.82;;
15677;SDS011;7939;50.814;6.368;2022-10-16T14:05:30;1.33;;;0.50;;
15677;SDS011;7939;50.814;6.368;2022-10-16T14:07:57;0.85;;;0.65;;
15677;SDS011;7939;50.814;6.368;2022-10-16T14:10:25;0.80;;;0.57;;
15677;SDS011;7939;50.814;6.368;2022-10-16T14:12:58;1.30;;;0.65;;
15677;SDS011;7939;50.814;6.368;2022-10-16T14:15:26;0.60;;;0.55;;
15677;SDS011;7939;50.814;6.368;2022-10-16T14:17:56;0.95;;;0.50;;
15677;SDS011;7939;50.814;6.368;2022-10-16T14:20:24;0.65;;;0.50;;
15677;SDS011;7939;50.814;6.368;2022-10-16T14:23:00;0.60;;;0.60;;
15677;SDS011;7939;50.814;6.368;2022-10-16T14:25:29;0.70;;;0.70;;
15677;SDS011;7939;50.814;6.368;2022-10-16T14:27:58;0.88;;;0.73;;
15677;SDS011;7939;50.814;6.368;2022-10-16T14:30:27;0.60;;;0.60;;
15677;SDS011;7939;50.814;6.368;2022-10-16T14:32:57;1.17;;;0.60;;
15677;SDS011;7939;50.814;6.368;2022-10-16T14:35:26;0.82;;;0.60;;
15677;SDS011;7939;50.814;6.368;2022-10-16T14:37:56;0.50;;;0.50;;
15677;SDS011;7939;50.814;6.368;2022-10-16T14:40:24;0.60;;;0.45;;
15677;SDS011;7939;50.814;6.368;2022-10-16T14:42:52;0.50;;;0.50;;
15677;SDS011;7939;50.814;6.368;2022-10-16T14:45:20;0.50;;;0.50;;
15677;SDS011;7939;50.814;6.368;2022-10-16T14:47:49;0.52;;;0.52;;
15677;SDS011;7939;50.814;6.368;2022-10-16T14:50:19;0.80;;;0.80;;
15677;SDS011;7939;50.814;6.368;2022-10-16T14:52:46;1.05;;;0.55;;
15677;SDS011;7939;50.814;6.368;2022-10-16T14:55:13;1.35;;;0.60;;
15677;SDS011;7939;50.814;6.368;2022-10-16T14:57:41;0.70;;;0.57;;
15677;SDS011;7939;50.814;6.368;2022-10-16T15:00:10;0.88;;;0.55;;
15677;SDS011;7939;50.814;6.368;2022-10-16T15:02:42;1.27;;;0.57;;
15677;SDS011;7939;50.814;6.368;2022-10-16T15:05:11;0.65;;;0.60;;
15677;SDS011;7939;50.814;6.368;2022-10-16T15:07:41;0.57;;;0.50;;
15677;SDS011;7939;50.814;6.368;2022-10-16T15:10:08;2.00;;;0.60;;
15677;SDS011;7939;50.814;6.368;2022-10-16T15:12:35;0.45;;;0.45;;
15677;SDS011;7939;50.814;6.368;2022-10-16T15:15:01;1.65;;;0.70;;
15677;SDS011;7939;50.814;6.368;2022-10-16T15:17:42;0.68;;;0.68;;
15677;SDS011;7939;50.814;6.368;2022-10-16T15:20:08;1.02;;;0.47;;
15677;SDS011;7939;50.814;6.368;2022-10-16T15:22:35;1.38;;;0.80;;
15677;SDS011;7939;50.814;6.368;2022-10-16T15:25:07;0.65;;;0.65;;
15677;SDS011;7939;50.814;6.368;2022-10-16T15:27:43;1.67;;;0.57;;